Manresa, Spain
Current Conditions -  °F | °C
As of 1:00 PM on Friday 31 Oct 2014 (Local Time) from LELL Reporting Station
Scattered Clouds Scattered Clouds  
Wind Chill: 72°   Ceiling: Unl
Heat Index: 72°   Visibility: 5mi
Dew Point: 57°   Wind: 1mph
Humidity: 60%   Direction: 190°S
Pressure: 30.24"   Gusts: NA
Location:  41.73°N, 1.82°E
Report Text: LELL 311200Z 19001KT 8000 SCT025 22/14 Q1024
Loading
Personal Weather Stations






























Interactive Weather Map
Tropical Storm Tracking
New forecast layout! Learn more

10-Day Weather Forecast

Advertisements
Track Severe Weather on mobile